Aviation Digital Data Service (ADDS)

Output produced by TAFs form (0435 UTC 22 September 2017)
found at http://www.aviationweather.gov/adds/tafs/
 
METAR text: WIII 220430Z 05006KT 9999 FEW022 33/18 Q1010 NOSIG
Conditions at: WIII (SOEKARNO-HATTA I, ID) observed 0430 UTC 22 September 2017
Temperature: 33.0°C (91°F)
Dewpoint: 18.0°C (64°F) [RH = 41%]
Pressure (altimeter): 29.82 inches Hg (1010.0 mb)
Winds: from the NE (50 degrees) at 7 MPH (6 knots; 3.1 m/s)
Visibility: 6 or more miles (10+ km)
Ceiling: at least 12,000 feet AGL
Clouds: few clouds at 2200 feet AGL
Weather: no significant weather observed at this time

Forecast for: WIII (SOEKARNO-HATTA I, ID)
Text: TAF WIII 220500Z 2206/2312 03010KT 9999 FEW022
Forecast period: 0600 to 1600 UTC 22 September 2017
Forecast type: FROM: standard forecast or significant change
Winds: from the NNE (30 degrees) at 12 MPH (10 knots; 5.2 m/s)
Visibility: 6 or more miles (10+ km)
Clouds: few clouds at 2200 feet AGL
Weather: no significant weather forecast for this period
Text: FM221600 20004KT 5000 HZ FEW020
Forecast period: 1600 UTC 22 September 2017 to 1200 UTC 23 September 2017
Forecast type: FROM: standard forecast or significant change
Winds: from the SSW (200 degrees) at 5 MPH (4 knots; 2.1 m/s)
Visibility: 3 miles (5 km)
Clouds: few clouds at 2000 feet AGL
Weather: HZ  (haze)